KDFW/DFW METAR and TAF weather

Enter ICAO airport designator
Station Type Date Time Source
KDFW METAR 2020/09/18 06:53 UTC NOAA

KDFW 180653Z 35005KT 10SM FEW300 23/17 A3004 RMK AO2 SLP163 T02280167 $


Station Type Date Time Source
KDFW Decoded METAR 2020/09/18 06:53 UTC NOAA

DALLAS/FT. WORTH INTERNATIONAL AIRPORT , TX, United States (KDFW) 32-54N 097-02W 174M
Sep 18, 2020 - 02:53 AM EDT / 2020.09.18 0653 UTC
Wind: from the N (350 degrees) at 6 MPH (5 KT):0
Visibility: 10 mile(s):0
Sky conditions: mostly clear
Temperature: 73.0 F (22.8 C)
Dew Point: 62.1 F (16.7 C)
Relative Humidity: 68%
Pressure (altimeter): 30.04 in. Hg (1017 hPa)
ob: KDFW 180653Z 35005KT 10SM FEW300 23/17 A3004 RMK AO2 SLP163 T02280167
cycle: 7

Station Type Date Time Source
KDFW TAF 2020/09/18 06:22 UTC NOAA

TAF KDFW 180520Z 1806/1912 03007KT P6SM SCT250
FM181700 03010KT P6SM SCT050
FM182300 05008KT P6SM SCT250

Example: see airport list